Time,TemperatureF,DewpointF,PressureIn,WindDirection,WindDirectionDegrees,WindSpeedMPH,WindSpeedGustMPH,Humidity,HourlyPrecipIn,Conditions,Clouds,dailyrainin,SoftwareType,DateUTC
2013-07-03 00:00:00,70.9,64.5,29.06,ESE,112,0.0,0.0,80,0.00,,,0.00,WUHU216WMR100,2013-07-03 04:00:00,
2013-07-03 00:01:00,70.9,64.5,29.06,ESE,112,0.0,0.0,80,0.00,,,0.00,WUHU216WMR100,2013-07-03 04:01:00,
2013-07-03 00:03:00,70.9,64.5,29.09,ESE,112,0.0,0.0,80,0.00,,,0.00,WUHU216WMR100,2013-07-03 04:03:00,
2013-07-03 00:04:00,70.9,64.5,29.09,ESE,112,0.0,0.0,80,0.00,,,0.00,WUHU216WMR100,2013-07-03 04:04:00,
2013-07-03 00:09:00,70.7,64.3,29.09,ESE,112,0.0,0.0,80,0.00,,,0.00,WUHU216WMR100,2013-07-03 04:09:00,
2013-07-03 00:14:00,70.5,64.5,29.09,ESE,112,0.0,0.0,81,0.00,,,0.00,WUHU216WMR100,2013-07-03 04:14:00,
2013-07-03 00:19:00,70.5,64.5,29.09,ESE,112,0.0,0.0,81,0.00,,,0.00,WUHU216WMR100,2013-07-03 04:19:00,
2013-07-03 00:24:00,70.3,64.3,29.09,ESE,112,0.0,0.0,81,0.00,,,0.00,WUHU216WMR100,2013-07-03 04:24:00,
2013-07-03 00:29:00,70.3,64.6,29.09,ESE,112,0.0,0.0,82,0.00,,,0.00,WUHU216WMR100,2013-07-03 04:29:00,
2013-07-03 00:31:00,70.2,64.5,29.09,ESE,112,0.0,0.0,82,0.00,,,0.00,WUHU216WMR100,2013-07-03 04:31:00,
2013-07-03 00:32:00,70.2,64.5,29.09,ESE,112,0.0,0.0,82,0.00,,,0.00,WUHU216WMR100,2013-07-03 04:32:00,
2013-07-03 00:37:00,70.0,64.3,29.09,ESE,112,0.0,0.0,82,0.00,,,0.00,WUHU216WMR100,2013-07-03 04:37:00,
2013-07-03 00:42:00,70.0,64.6,29.09,ESE,112,0.0,0.0,83,0.00,,,0.00,WUHU216WMR100,2013-07-03 04:42:00,
2013-07-03 00:45:00,70.0,64.6,29.09,ESE,112,0.0,0.0,83,0.00,,,0.00,WUHU216WMR100,2013-07-03 04:45:00,
2013-07-03 00:46:00,70.0,65.0,29.09,ESE,112,0.0,0.0,84,0.00,,,0.00,WUHU216WMR100,2013-07-03 04:46:00,
2013-07-03 00:51:00,69.8,64.8,29.06,ESE,112,0.0,0.0,84,0.00,,,0.00,WUHU216WMR100,2013-07-03 04:51:00,
2013-07-03 00:53:00,69.8,64.8,29.06,ESE,112,0.0,0.0,84,0.00,,,0.00,WUHU216WMR100,2013-07-03 04:53:00,
2013-07-03 00:58:00,69.6,64.9,29.06,ESE,112,0.0,0.0,85,0.00,,,0.00,WUHU216WMR100,2013-07-03 04:58:00,
2013-07-03 01:03:00,69.4,64.7,29.09,ESE,112,0.0,0.0,85,0.00,,,0.00,WUHU216WMR100,2013-07-03 05:03:00,
2013-07-03 01:07:00,69.4,64.7,29.09,ESE,112,0.0,0.0,85,0.00,,,0.00,WUHU216WMR100,2013-07-03 05:07:00,
2013-07-03 01:12:00,69.4,65.0,29.09,ESE,112,0.0,0.0,86,0.00,,,0.00,WUHU216WMR100,2013-07-03 05:12:00,
2013-07-03 01:17:00,69.4,65.4,29.09,ESE,112,0.0,0.0,87,0.00,,,0.00,WUHU216WMR100,2013-07-03 05:17:00,
2013-07-03 01:19:00,69.3,65.3,29.09,ESE,112,0.0,0.0,87,0.00,,,0.00,WUHU216WMR100,2013-07-03 05:19:00,
2013-07-03 01:24:00,69.1,65.1,29.09,ESE,112,0.0,0.0,87,0.00,,,0.00,WUHU216WMR100,2013-07-03 05:24:00,
2013-07-03 01:29:00,69.1,65.1,29.09,ESE,112,0.0,0.0,87,0.00,,,0.00,WUHU216WMR100,2013-07-03 05:29:00,
2013-07-03 01:34:00,69.1,65.1,29.06,ESE,112,0.0,0.0,87,0.00,,,0.00,WUHU216WMR100,2013-07-03 05:34:00,
2013-07-03 01:40:00,68.9,64.9,29.06,ESE,112,0.0,0.0,87,0.00,,,0.00,WUHU216WMR100,2013-07-03 05:40:00,
2013-07-03 01:45:00,69.1,65.4,29.06,ESE,112,1.2,1.6,88,0.00,,,0.00,WUHU216WMR100,2013-07-03 05:45:00,
2013-07-03 01:50:00,69.1,65.4,29.06,ESE,112,0.0,1.6,88,0.00,,,0.00,WUHU216WMR100,2013-07-03 05:50:00,
2013-07-03 01:54:00,69.1,65.4,29.06,ESE,112,0.0,1.6,88,0.00,,,0.00,WUHU216WMR100,2013-07-03 05:54:00,
2013-07-03 01:58:00,69.1,65.7,29.06,ESE,112,0.0,0.0,89,0.00,,,0.00,WUHU216WMR100,2013-07-03 05:58:00,
2013-07-03 02:02:00,68.9,65.5,29.06,ESE,112,0.0,0.0,89,0.00,,,0.00,WUHU216WMR100,2013-07-03 06:02:00,
2013-07-03 02:07:00,68.9,65.5,29.06,ESE,112,0.0,0.0,89,0.00,,,0.00,WUHU216WMR100,2013-07-03 06:07:00,
2013-07-03 02:13:00,68.7,65.3,29.06,ESE,112,0.0,0.0,89,0.00,,,0.00,WUHU216WMR100,2013-07-03 06:13:00,
2013-07-03 02:16:00,68.9,65.5,29.06,ESE,112,0.0,0.0,89,0.00,,,0.00,WUHU216WMR100,2013-07-03 06:16:00,
2013-07-03 02:18:00,68.9,65.8,29.06,ESE,112,0.0,0.0,90,0.00,,,0.00,WUHU216WMR100,2013-07-03 06:18:00,
2013-07-03 02:22:00,68.9,65.8,29.06,ESE,112,0.0,0.0,90,0.00,,,0.00,WUHU216WMR100,2013-07-03 06:22:00,
2013-07-03 02:24:00,68.9,65.8,29.06,ESE,112,0.0,0.0,90,0.00,,,0.00,WUHU216WMR100,2013-07-03 06:24:00,
2013-07-03 02:27:00,68.9,65.8,29.06,ESE,112,0.0,0.0,90,0.00,,,0.00,WUHU216WMR100,2013-07-03 06:27:00,
2013-07-03 02:32:00,69.1,66.0,29.06,ESE,112,0.0,0.0,90,0.00,,,0.00,WUHU216WMR100,2013-07-03 06:32:00,
2013-07-03 02:37:00,69.3,66.2,29.06,ESE,112,0.0,1.6,90,0.00,,,0.00,WUHU216WMR100,2013-07-03 06:37:00,
2013-07-03 02:42:00,69.3,66.2,29.06,ESE,112,0.0,1.6,90,0.00,,,0.00,WUHU216WMR100,2013-07-03 06:42:00,
2013-07-03 02:43:00,69.3,66.2,29.06,ESE,112,0.0,0.9,90,0.00,,,0.00,WUHU216WMR100,2013-07-03 06:43:00,
2013-07-03 02:48:00,69.3,66.2,29.06,ESE,112,0.0,0.0,90,0.00,,,0.00,WUHU216WMR100,2013-07-03 06:48:00,
2013-07-03 02:54:00,69.3,66.2,29.06,ESE,112,0.0,0.0,90,0.00,,,0.00,WUHU216WMR100,2013-07-03 06:54:00,
2013-07-03 02:56:00,69.3,66.2,29.06,ESE,112,0.0,0.0,90,0.00,,,0.00,WUHU216WMR100,2013-07-03 06:56:00,
2013-07-03 03:01:00,69.4,66.3,29.06,ESE,112,0.0,0.0,90,0.00,,,0.00,WUHU216WMR100,2013-07-03 07:01:00,
2013-07-03 03:08:00,69.4,66.3,29.09,ESE,112,0.0,0.0,90,0.00,,,0.00,WUHU216WMR100,2013-07-03 07:08:00,
2013-07-03 03:13:00,69.4,66.3,29.09,ESE,112,0.0,0.0,90,0.00,,,0.00,WUHU216WMR100,2013-07-03 07:13:00,
2013-07-03 03:16:00,69.4,66.3,29.09,ESE,112,0.0,0.0,90,0.00,,,0.00,WUHU216WMR100,2013-07-03 07:16:00,
2013-07-03 03:22:00,69.4,66.3,29.06,ESE,112,0.0,0.0,90,0.00,,,0.00,WUHU216WMR100,2013-07-03 07:22:00,
2013-07-03 03:27:00,69.6,66.5,29.06,ESE,112,0.0,0.0,90,0.00,,,0.00,WUHU216WMR100,2013-07-03 07:27:00,
2013-07-03 03:33:00,69.6,66.5,29.06,ESE,112,0.0,0.0,90,0.00,,,0.00,WUHU216WMR100,2013-07-03 07:33:00,
2013-07-03 03:38:00,69.6,66.5,29.06,ESE,112,0.0,0.0,90,0.00,,,0.00,WUHU216WMR100,2013-07-03 07:38:00,
2013-07-03 03:43:00,69.6,66.5,29.06,ESE,112,0.0,0.0,90,0.00,,,0.00,WUHU216WMR100,2013-07-03 07:43:00,
2013-07-03 03:48:00,69.6,66.5,29.06,ESE,112,0.0,0.0,90,0.00,,,0.00,WUHU216WMR100,2013-07-03 07:48:00,
2013-07-03 03:50:00,69.8,66.4,29.06,ESE,112,0.0,0.0,89,0.00,,,0.00,WUHU216WMR100,2013-07-03 07:50:00,
2013-07-03 03:55:00,69.1,66.0,29.06,ESE,112,0.0,0.0,90,0.00,,,0.00,WUHU216WMR100,2013-07-03 07:55:00,
2013-07-03 04:00:00,70.0,66.9,29.06,ESE,112,0.0,0.0,90,0.00,,,0.00,WUHU216WMR100,2013-07-03 08:00:00,
2013-07-03 04:02:00,70.0,66.9,29.06,ESE,112,0.0,0.0,90,0.00,,,0.00,WUHU216WMR100,2013-07-03 08:02:00,
2013-07-03 04:07:00,70.0,66.9,29.06,ESE,112,0.0,0.0,90,0.00,,,0.00,WUHU216WMR100,2013-07-03 08:07:00,
2013-07-03 04:10:00,70.0,66.9,29.06,ESE,112,0.0,0.0,90,0.00,,,0.00,WUHU216WMR100,2013-07-03 08:10:00,
2013-07-03 04:15:00,70.0,66.9,29.06,ESE,112,0.0,0.0,90,0.00,,,0.00,WUHU216WMR100,2013-07-03 08:15:00,
2013-07-03 04:16:00,70.0,66.9,29.06,ESE,112,0.0,0.0,90,0.00,,,0.00,WUHU216WMR100,2013-07-03 08:16:00,
2013-07-03 04:20:00,70.0,66.6,29.06,ESE,112,0.0,0.0,89,0.00,,,0.00,WUHU216WMR100,2013-07-03 08:20:00,
2013-07-03 04:25:00,70.0,66.6,29.06,ESE,112,0.0,0.0,89,0.00,,,0.00,WUHU216WMR100,2013-07-03 08:25:00,
2013-07-03 04:30:00,70.2,66.8,29.06,East,90,1.1,2.7,89,0.00,,,0.00,WUHU216WMR100,2013-07-03 08:30:00,
2013-07-03 04:35:00,70.2,67.1,29.06,SE,135,0.0,2.7,90,0.00,,,0.00,WUHU216WMR100,2013-07-03 08:35:00,
2013-07-03 04:39:00,70.2,67.1,29.06,SE,135,0.0,2.7,90,0.00,,,0.00,WUHU216WMR100,2013-07-03 08:39:00,
2013-07-03 04:44:00,70.2,66.8,29.06,SE,135,0.0,0.0,89,0.00,,,0.00,WUHU216WMR100,2013-07-03 08:44:00,
2013-07-03 04:45:00,70.2,66.8,29.06,SE,135,0.0,0.0,89,0.00,,,0.00,WUHU216WMR100,2013-07-03 08:45:00,
2013-07-03 04:50:00,70.3,66.9,29.09,SE,135,0.0,0.0,89,0.00,,,0.00,WUHU216WMR100,2013-07-03 08:50:00,
2013-07-03 04:54:00,70.3,66.9,29.09,SE,135,0.0,0.0,89,0.00,,,0.00,WUHU216WMR100,2013-07-03 08:54:00,
2013-07-03 04:56:00,70.3,66.9,29.09,SE,135,0.0,0.0,89,0.00,,,0.00,WUHU216WMR100,2013-07-03 08:56:00,
2013-07-03 05:02:00,70.2,66.8,29.09,SE,135,0.0,0.0,89,0.00,,,0.00,WUHU216WMR100,2013-07-03 09:02:00,
2013-07-03 05:07:00,70.2,66.8,29.09,SE,135,0.0,0.0,89,0.00,,,0.00,WUHU216WMR100,2013-07-03 09:07:00,
2013-07-03 05:12:00,70.2,66.8,29.09,SE,135,0.0,0.0,89,0.00,,,0.00,WUHU216WMR100,2013-07-03 09:12:00,
2013-07-03 05:17:00,70.2,66.8,29.09,SE,135,0.0,0.0,89,0.00,,,0.00,WUHU216WMR100,2013-07-03 09:17:00,
2013-07-03 05:23:00,70.0,66.6,29.09,SE,135,0.0,0.0,89,0.00,,,0.00,WUHU216WMR100,2013-07-03 09:23:00,
2013-07-03 05:28:00,70.0,66.6,29.09,SE,135,0.0,0.0,89,0.00,,,0.00,WUHU216WMR100,2013-07-03 09:28:00,
2013-07-03 05:34:00,69.8,66.4,29.09,SE,135,0.0,0.0,89,0.00,,,0.00,WUHU216WMR100,2013-07-03 09:34:00,
2013-07-03 05:39:00,69.6,66.2,29.09,SE,135,0.0,0.0,89,0.00,,,0.00,WUHU216WMR100,2013-07-03 09:39:00,
2013-07-03 05:41:00,69.4,66.0,29.09,SE,135,0.0,0.0,89,0.00,,,0.00,WUHU216WMR100,2013-07-03 09:41:00,
2013-07-03 05:46:00,69.3,65.9,29.09,SE,135,0.0,0.0,89,0.00,,,0.00,WUHU216WMR100,2013-07-03 09:46:00,
2013-07-03 05:49:00,69.3,66.2,29.09,SE,135,0.0,0.0,90,0.00,,,0.00,WUHU216WMR100,2013-07-03 09:49:00,
2013-07-03 05:50:00,69.3,66.2,29.09,SE,135,0.0,0.0,90,0.00,,,0.00,WUHU216WMR100,2013-07-03 09:50:00,
2013-07-03 05:55:00,69.3,66.2,29.09,SE,135,0.0,0.0,90,0.00,,,0.00,WUHU216WMR100,2013-07-03 09:55:00,
2013-07-03 06:01:00,69.3,66.2,29.09,SE,135,0.0,0.0,90,0.00,,,0.00,WUHU216WMR100,2013-07-03 10:01:00,
2013-07-03 06:04:00,69.3,66.2,29.09,SE,135,0.0,0.0,90,0.00,,,0.00,WUHU216WMR100,2013-07-03 10:04:00,
2013-07-03 06:05:00,69.3,66.2,29.09,SE,135,0.0,0.0,90,0.00,,,0.00,WUHU216WMR100,2013-07-03 10:05:00,
2013-07-03 06:10:00,69.3,66.2,29.09,SE,135,0.0,0.0,90,0.00,,,0.00,WUHU216WMR100,2013-07-03 10:10:00,
2013-07-03 06:16:00,69.1,66.0,29.09,SE,135,0.0,0.0,90,0.00,,,0.00,WUHU216WMR100,2013-07-03 10:16:00,
2013-07-03 06:21:00,69.1,66.0,29.12,SE,135,0.0,0.0,90,0.00,,,0.00,WUHU216WMR100,2013-07-03 10:21:00,
2013-07-03 06:26:00,69.1,66.3,29.12,SE,135,0.0,0.0,91,0.00,,,0.00,WUHU216WMR100,2013-07-03 10:26:00,
2013-07-03 06:31:00,69.3,66.5,29.12,SE,135,0.0,0.0,91,0.00,,,0.00,WUHU216WMR100,2013-07-03 10:31:00,
2013-07-03 06:32:00,69.3,66.5,29.12,SE,135,0.0,0.0,91,0.00,,,0.00,WUHU216WMR100,2013-07-03 10:32:00,
2013-07-03 06:37:00,69.3,66.5,29.12,SE,135,0.9,1.3,91,0.00,,,0.00,WUHU216WMR100,2013-07-03 10:37:00,
2013-07-03 06:42:00,69.4,66.6,29.12,SE,135,0.0,1.3,91,0.00,,,0.00,WUHU216WMR100,2013-07-03 10:42:00,
2013-07-03 06:47:00,69.6,66.8,29.12,SE,135,1.1,1.6,91,0.00,,,0.00,WUHU216WMR100,2013-07-03 10:47:00,
2013-07-03 06:49:00,69.8,67.0,29.12,SE,135,0.6,1.6,91,0.00,,,0.00,WUHU216WMR100,2013-07-03 10:49:00,
2013-07-03 06:54:00,70.3,67.5,29.12,SE,135,0.9,1.6,91,0.00,,,0.00,WUHU216WMR100,2013-07-03 10:54:00,
2013-07-03 06:56:00,70.7,67.9,29.12,SE,135,1.0,1.6,91,0.00,,,0.00,WUHU216WMR100,2013-07-03 10:56:00,
2013-07-03 06:57:00,71.1,68.3,29.12,SE,135,0.3,1.6,91,0.00,,,0.00,WUHU216WMR100,2013-07-03 10:57:00,
2013-07-03 07:03:00,71.8,69.0,29.12,SE,135,0.0,1.6,91,0.00,,,0.00,WUHU216WMR100,2013-07-03 11:03:00,
2013-07-03 07:08:00,72.7,69.9,29.12,SE,135,0.0,1.3,91,0.00,,,0.00,WUHU216WMR100,2013-07-03 11:08:00,
2013-07-03 07:09:00,72.9,70.1,29.12,SE,135,0.0,1.3,91,0.00,,,0.00,WUHU216WMR100,2013-07-03 11:09:00,
2013-07-03 07:14:00,73.4,70.3,29.12,SE,135,0.0,0.9,90,0.00,,,0.00,WUHU216WMR100,2013-07-03 11:14:00,
2013-07-03 07:19:00,73.8,70.0,29.12,SE,135,0.0,0.9,88,0.00,,,0.00,WUHU216WMR100,2013-07-03 11:19:00,
2013-07-03 07:23:00,73.4,68.6,29.12,ESE,112,1.3,2.7,85,0.00,,,0.00,WUHU216WMR100,2013-07-03 11:23:00,
2013-07-03 07:25:00,73.2,68.5,29.12,ESE,112,0.6,2.7,85,0.00,,,0.00,WUHU216WMR100,2013-07-03 11:25:00,
2013-07-03 07:30:00,73.0,67.6,29.12,ESE,112,0.9,2.0,83,0.00,,,0.00,WUHU216WMR100,2013-07-03 11:30:00,
2013-07-03 07:35:00,72.7,66.6,29.12,NNE,22,1.1,3.1,81,0.00,,,0.00,WUHU216WMR100,2013-07-03 11:35:00,
2013-07-03 07:40:00,72.9,66.8,29.12,NNE,22,0.9,3.1,81,0.00,,,0.00,WUHU216WMR100,2013-07-03 11:40:00,
2013-07-03 07:45:00,72.9,66.5,29.12,NNE,22,0.0,1.6,80,0.00,,,0.00,WUHU216WMR100,2013-07-03 11:45:00,
2013-07-03 07:46:00,72.9,66.5,29.12,NNE,22,1.3,2.5,80,0.00,,,0.00,WUHU216WMR100,2013-07-03 11:46:00,
2013-07-03 07:51:00,73.2,67.1,29.12,NNE,22,0.5,2.5,81,0.00,,,0.00,WUHU216WMR100,2013-07-03 11:51:00,
2013-07-03 07:56:00,73.9,67.4,29.12,NNE,22,0.4,2.0,80,0.00,,,0.00,WUHU216WMR100,2013-07-03 11:56:00,
2013-07-03 07:59:00,73.9,67.4,29.12,ENE,67,0.0,2.7,80,0.00,,,0.00,WUHU216WMR100,2013-07-03 11:59:00,
2013-07-03 08:03:00,73.9,67.1,29.12,East,90,0.9,3.6,79,0.00,,,0.00,WUHU216WMR100,2013-07-03 12:03:00,
2013-07-03 08:08:00,73.9,66.7,29.12,East,90,0.0,3.6,78,0.00,,,0.00,WUHU216WMR100,2013-07-03 12:08:00,
2013-07-03 08:12:00,73.8,66.6,29.12,WSW,247,1.0,2.5,78,0.00,,,0.00,WUHU216WMR100,2013-07-03 12:12:00,
2013-07-03 08:16:00,74.5,67.3,29.12,WSW,247,0.9,2.5,78,0.00,,,0.00,WUHU216WMR100,2013-07-03 12:16:00,
2013-07-03 08:20:00,74.8,67.2,29.15,WSW,247,0.9,2.5,77,0.00,,,0.00,WUHU216WMR100,2013-07-03 12:20:00,
2013-07-03 08:25:00,75.4,67.1,29.15,WSW,247,1.6,2.7,75,0.00,,,0.00,WUHU216WMR100,2013-07-03 12:25:00,
2013-07-03 08:32:00,76.5,67.4,29.15,WSW,247,2.7,3.4,73,0.00,,,0.00,WUHU216WMR100,2013-07-03 12:32:00,
2013-07-03 08:37:00,77.7,68.1,29.15,WSW,247,1.1,5.4,72,0.00,,,0.00,WUHU216WMR100,2013-07-03 12:37:00,
2013-07-03 08:43:00,78.3,67.1,29.15,NNW,337,2.0,5.4,68,0.00,,,0.00,WUHU216WMR100,2013-07-03 12:43:00,
2013-07-03 08:46:00,78.8,66.7,29.15,ESE,112,2.2,5.4,66,0.00,,,0.00,WUHU216WMR100,2013-07-03 12:46:00,
2013-07-03 08:52:00,79.3,67.2,29.15,ESE,112,1.6,4.0,66,0.00,,,0.00,WUHU216WMR100,2013-07-03 12:52:00,
2013-07-03 08:58:00,79.7,67.6,29.15,ESE,112,0.3,4.0,66,0.00,,,0.00,WUHU216WMR100,2013-07-03 12:58:00,
2013-07-03 09:04:00,80.1,66.6,29.15,West,270,1.4,2.7,63,0.00,,,0.00,WUHU216WMR100,2013-07-03 13:04:00,
2013-07-03 09:11:00,80.2,66.2,29.15,SSE,157,1.6,3.6,62,0.00,,,0.00,WUHU216WMR100,2013-07-03 13:11:00,
2013-07-03 09:16:00,80.6,65.7,29.15,WSW,247,1.6,3.6,60,0.00,,,0.00,WUHU216WMR100,2013-07-03 13:16:00,
2013-07-03 09:22:00,80.8,64.9,29.15,WSW,248,2.2,3.8,58,0.00,,,0.00,WUHU216WMR100,2013-07-03 13:22:00,
2013-07-03 09:25:00,81.5,64.5,29.15,WSW,247,1.7,3.8,56,0.00,,,0.00,WUHU216WMR100,2013-07-03 13:25:00,
2013-07-03 09:26:00,82.0,66.0,29.15,WSW,247,1.6,3.8,58,0.00,,,0.00,WUHU216WMR100,2013-07-03 13:26:00,
2013-07-03 09:31:00,82.8,65.2,29.15,WSW,247,2.5,3.8,55,0.00,,,0.00,WUHU216WMR100,2013-07-03 13:31:00,
2013-07-03 09:36:00,82.0,63.4,29.15,West,270,2.9,4.3,53,0.00,,,0.00,WUHU216WMR100,2013-07-03 13:36:00,
2013-07-03 09:37:00,82.0,63.4,29.15,WSW,251,2.8,4.3,53,0.00,,,0.00,WUHU216WMR100,2013-07-03 13:37:00,
2013-07-03 09:43:00,81.9,64.3,29.15,SSW,202,0.4,4.3,55,0.00,,,0.00,WUHU216WMR100,2013-07-03 13:43:00,
2013-07-03 09:48:00,82.2,64.6,29.15,WSW,247,1.7,4.0,55,0.00,,,0.00,WUHU216WMR100,2013-07-03 13:48:00,
2013-07-03 09:53:00,82.2,63.5,29.15,WSW,247,2.3,4.3,53,0.00,,,0.00,WUHU216WMR100,2013-07-03 13:53:00,
2013-07-03 09:58:00,81.9,63.8,29.15,WSW,247,1.6,4.3,54,0.00,,,0.00,WUHU216WMR100,2013-07-03 13:58:00,
2013-07-03 10:03:00,81.7,63.6,29.15,West,270,2.0,3.1,54,0.00,,,0.00,WUHU216WMR100,2013-07-03 14:03:00,
2013-07-03 10:06:00,81.7,63.6,29.15,West,270,1.9,3.4,54,0.00,,,0.00,WUHU216WMR100,2013-07-03 14:06:00,
2013-07-03 10:10:00,81.3,63.2,29.15,West,270,1.1,3.4,54,0.00,,,0.00,WUHU216WMR100,2013-07-03 14:10:00,
2013-07-03 10:15:00,81.1,63.1,29.15,SSW,202,1.6,2.7,54,0.00,,,0.00,WUHU216WMR100,2013-07-03 14:15:00,
2013-07-03 10:18:00,81.0,63.5,29.15,WSW,247,1.6,3.4,55,0.00,,,0.00,WUHU216WMR100,2013-07-03 14:18:00,
2013-07-03 10:23:00,82.4,64.3,29.15,ESE,112,2.0,3.4,54,0.00,,,0.00,WUHU216WMR100,2013-07-03 14:23:00,
2013-07-03 10:28:00,83.5,64.8,29.15,WSW,247,2.0,3.1,53,0.00,,,0.00,WUHU216WMR100,2013-07-03 14:28:00,
2013-07-03 10:30:00,84.4,65.0,29.15,West,270,2.2,3.1,52,0.00,,,0.00,WUHU216WMR100,2013-07-03 14:30:00,
2013-07-03 10:35:00,85.1,63.3,29.15,WSW,247,2.7,4.7,48,0.00,,,0.00,WUHU216WMR100,2013-07-03 14:35:00,
2013-07-03 10:38:00,86.0,64.1,29.15,West,270,2.1,5.6,48,0.00,,,0.00,WUHU216WMR100,2013-07-03 14:38:00,
2013-07-03 10:41:00,86.0,64.1,29.15,West,270,1.9,5.6,48,0.00,,,0.00,WUHU216WMR100,2013-07-03 14:41:00,
2013-07-03 10:46:00,87.1,64.5,29.15,WNW,292,1.1,4.3,47,0.00,,,0.00,WUHU216WMR100,2013-07-03 14:46:00,
2013-07-03 10:51:00,86.5,62.7,29.15,SSW,210,2.8,5.8,45,0.00,,,0.00,WUHU216WMR100,2013-07-03 14:51:00,
2013-07-03 10:52:00,86.2,62.4,29.15,SSE,157,1.6,5.8,45,0.00,,,0.00,WUHU216WMR100,2013-07-03 14:52:00,
2013-07-03 10:57:00,86.7,62.9,29.15,West,270,2.0,5.8,45,0.00,,,0.00,WUHU216WMR100,2013-07-03 14:57:00,
2013-07-03 10:58:00,86.0,61.6,29.15,South,180,2.2,5.8,44,0.00,,,0.00,WUHU216WMR100,2013-07-03 14:58:00,
2013-07-03 11:03:00,84.9,61.2,29.15,South,171,1.0,3.1,45,0.00,,,0.00,WUHU216WMR100,2013-07-03 15:03:00,
2013-07-03 11:04:00,85.1,62.1,29.15,SSW,202,2.7,5.4,46,0.00,,,0.00,WUHU216WMR100,2013-07-03 15:04:00,
2013-07-03 11:09:00,85.5,62.4,29.15,SSE,157,2.2,5.4,46,0.00,,,0.00,WUHU216WMR100,2013-07-03 15:09:00,
2013-07-03 11:14:00,85.5,62.4,29.15,SSW,202,3.4,4.0,46,0.00,,,0.00,WUHU216WMR100,2013-07-03 15:14:00,
2013-07-03 11:15:00,85.8,62.1,29.15,WSW,250,2.8,4.0,45,0.00,,,0.00,WUHU216WMR100,2013-07-03 15:15:00,
2013-07-03 11:20:00,86.2,61.8,29.15,WSW,247,2.4,5.4,44,0.00,,,0.00,WUHU216WMR100,2013-07-03 15:20:00,
2013-07-03 11:26:00,86.0,60.2,29.15,SSW,193,2.3,5.4,42,0.00,,,0.00,WUHU216WMR100,2013-07-03 15:26:00,
2013-07-03 11:28:00,87.4,61.5,29.15,SSE,157,2.2,4.3,42,0.00,,,0.00,WUHU216WMR100,2013-07-03 15:28:00,
2013-07-03 11:33:00,87.3,60.7,29.15,ESE,112,2.0,4.0,41,0.00,,,0.00,WUHU216WMR100,2013-07-03 15:33:00,
2013-07-03 11:38:00,87.1,61.2,29.15,East,90,1.3,4.0,42,0.00,,,0.00,WUHU216WMR100,2013-07-03 15:38:00,
2013-07-03 11:40:00,87.1,61.2,29.15,SSE,157,2.2,4.0,42,0.00,,,0.00,WUHU216WMR100,2013-07-03 15:40:00,
2013-07-03 11:45:00,86.7,60.9,29.15,SSW,202,2.2,3.8,42,0.00,,,0.00,WUHU216WMR100,2013-07-03 15:45:00,
2013-07-03 11:50:00,85.6,59.9,29.18,SSW,202,2.2,6.5,42,0.00,,,0.00,WUHU216WMR100,2013-07-03 15:50:00,
2013-07-03 11:52:00,86.4,60.6,29.18,SSW,203,1.1,6.5,42,0.00,,,0.00,WUHU216WMR100,2013-07-03 15:52:00,
2013-07-03 11:57:00,88.0,62.0,29.18,WSW,247,2.2,3.8,42,0.00,,,0.00,WUHU216WMR100,2013-07-03 15:57:00,
2013-07-03 12:02:00,89.8,63.0,29.15,WSW,247,2.2,3.1,41,0.00,,,0.00,WUHU216WMR100,2013-07-03 16:02:00,
2013-07-03 12:07:00,88.7,61.3,29.15,West,270,1.1,2.9,40,0.00,,,0.00,WUHU216WMR100,2013-07-03 16:07:00,
2013-07-03 12:13:00,88.5,61.8,29.15,WNW,292,2.2,3.4,41,0.00,,,0.00,WUHU216WMR100,2013-07-03 16:13:00,
2013-07-03 12:19:00,88.2,60.1,29.15,WSW,247,4.9,6.3,39,0.00,,,0.00,WUHU216WMR100,2013-07-03 16:19:00,
2013-07-03 12:24:00,88.9,60.7,29.15,WSW,247,3.1,7.4,39,0.00,,,0.00,WUHU216WMR100,2013-07-03 16:24:00,
2013-07-03 12:29:00,88.9,60.7,29.15,SW,216,3.1,7.4,39,0.00,,,0.00,WUHU216WMR100,2013-07-03 16:29:00,
2013-07-03 12:34:00,89.1,61.6,29.15,WSW,247,1.3,6.0,40,0.00,,,0.00,WUHU216WMR100,2013-07-03 16:34:00,
2013-07-03 12:39:00,88.7,60.5,29.15,West,270,2.1,3.8,39,0.00,,,0.00,WUHU216WMR100,2013-07-03 16:39:00,
2013-07-03 12:44:00,89.2,61.0,29.15,ESE,112,1.6,5.4,39,0.00,,,0.00,WUHU216WMR100,2013-07-03 16:44:00,
2013-07-03 12:49:00,90.7,61.6,29.15,SSE,157,2.0,5.4,38,0.00,,,0.00,WUHU216WMR100,2013-07-03 16:49:00,
2013-07-03 12:54:00,91.4,62.2,29.15,SSE,165,2.4,3.8,38,0.00,,,0.00,WUHU216WMR100,2013-07-03 16:54:00,
2013-07-03 13:00:00,91.0,59.5,29.15,SW,225,4.3,5.6,35,0.00,,,0.00,WUHU216WMR100,2013-07-03 17:00:00,
2013-07-03 13:05:00,92.5,60.8,29.15,WNW,292,3.6,5.6,35,0.00,,,0.00,WUHU216WMR100,2013-07-03 17:05:00,
2013-07-03 13:11:00,91.0,58.6,29.15,West,274,1.6,7.4,34,0.00,,,0.00,WUHU216WMR100,2013-07-03 17:11:00,
2013-07-03 13:16:00,89.4,56.4,29.15,South,176,3.0,7.4,33,0.00,,,0.00,WUHU216WMR100,2013-07-03 17:16:00,
2013-07-03 13:22:00,92.1,58.8,29.15,WNW,292,2.9,5.4,33,0.00,,,0.00,WUHU216WMR100,2013-07-03 17:22:00,
2013-07-03 13:27:00,92.7,57.5,29.15,SW,234,3.2,4.9,31,0.00,,,0.00,WUHU216WMR100,2013-07-03 17:27:00,
2013-07-03 13:32:00,93.0,57.8,29.15,SSE,157,3.6,6.0,31,0.00,,,0.00,WUHU216WMR100,2013-07-03 17:32:00,
2013-07-03 13:38:00,93.2,56.1,29.15,WNW,292,2.9,6.0,29,0.00,,,0.00,WUHU216WMR100,2013-07-03 17:38:00,
2013-07-03 13:43:00,91.8,54.9,29.15,SSW,208,3.5,7.6,29,0.00,,,0.00,WUHU216WMR100,2013-07-03 17:43:00,
2013-07-03 13:48:00,91.0,56.1,29.15,SE,145,2.3,7.6,31,0.00,,,0.00,WUHU216WMR100,2013-07-03 17:48:00,
2013-07-03 13:53:00,89.4,56.4,29.15,WSW,247,3.4,5.6,33,0.00,,,0.00,WUHU216WMR100,2013-07-03 17:53:00,
2013-07-03 13:58:00,91.4,57.3,29.15,WSW,247,3.9,6.3,32,0.00,,,0.00,WUHU216WMR100,2013-07-03 17:58:00,
2013-07-03 14:03:00,92.7,57.5,29.15,West,270,3.4,6.3,31,0.00,,,0.00,WUHU216WMR100,2013-07-03 18:03:00,
2013-07-03 14:08:00,91.4,57.3,29.15,SW,225,2.5,4.5,32,0.00,,,0.00,WUHU216WMR100,2013-07-03 18:08:00,
2013-07-03 14:13:00,93.2,58.0,29.15,West,279,2.9,5.8,31,0.00,,,0.00,WUHU216WMR100,2013-07-03 18:13:00,
2013-07-03 14:18:00,92.3,56.3,29.15,SSW,202,2.9,5.8,30,0.00,,,0.00,WUHU216WMR100,2013-07-03 18:18:00,
2013-07-03 14:23:00,93.6,57.4,29.15,SW,225,2.9,4.9,30,0.00,,,0.00,WUHU216WMR100,2013-07-03 18:23:00,
2013-07-03 14:28:00,93.7,55.6,29.15,SW,227,3.3,6.3,28,0.00,,,0.00,WUHU216WMR100,2013-07-03 18:28:00,
2013-07-03 14:33:00,93.6,55.5,29.15,South,186,3.2,6.3,28,0.00,,,0.00,WUHU216WMR100,2013-07-03 18:33:00,
2013-07-03 14:38:00,92.1,55.2,29.15,South,180,3.1,5.8,29,0.00,,,0.00,WUHU216WMR100,2013-07-03 18:38:00,
2013-07-03 14:43:00,90.9,55.1,29.15,WSW,247,2.0,5.8,30,0.00,,,0.00,WUHU216WMR100,2013-07-03 18:43:00,
2013-07-03 14:48:00,91.9,55.0,29.15,SSE,167,2.9,6.5,29,0.00,,,0.00,WUHU216WMR100,2013-07-03 18:48:00,
2013-07-03 14:54:00,90.7,55.8,29.15,SW,231,2.1,6.5,31,0.00,,,0.00,WUHU216WMR100,2013-07-03 18:54:00,
2013-07-03 14:59:00,90.9,56.9,29.15,WSW,247,2.0,5.6,32,0.00,,,0.00,WUHU216WMR100,2013-07-03 18:59:00,
2013-07-03 15:04:00,91.9,55.9,29.12,WSW,247,3.4,6.3,30,0.00,,,0.00,WUHU216WMR100,2013-07-03 19:04:00,
2013-07-03 15:09:00,93.4,56.3,29.12,WNW,282,3.3,7.6,29,0.00,,,0.00,WUHU216WMR100,2013-07-03 19:09:00,
2013-07-03 15:14:00,93.9,55.8,29.12,WSW,247,2.9,7.6,28,0.00,,,0.00,WUHU216WMR100,2013-07-03 19:14:00,
2013-07-03 15:19:00,93.4,55.3,29.15,SW,235,3.4,7.4,28,0.00,,,0.00,WUHU216WMR100,2013-07-03 19:19:00,
2013-07-03 15:24:00,91.6,54.8,29.15,WSW,247,2.2,7.4,29,0.00,,,0.00,WUHU216WMR100,2013-07-03 19:24:00,
2013-07-03 15:29:00,90.5,56.5,29.15,WSW,255,1.9,5.8,32,0.00,,,0.00,WUHU216WMR100,2013-07-03 19:29:00,
2013-07-03 15:35:00,90.7,56.7,29.12,South,179,2.1,3.8,32,0.00,,,0.00,WUHU216WMR100,2013-07-03 19:35:00,
2013-07-03 15:40:00,91.6,56.6,29.12,WSW,247,2.5,3.6,31,0.00,,,0.00,WUHU216WMR100,2013-07-03 19:40:00,
2013-07-03 15:45:00,90.0,55.2,29.12,SSW,202,2.7,3.6,31,0.00,,,0.00,WUHU216WMR100,2013-07-03 19:45:00,
2013-07-03 15:50:00,92.3,58.1,29.12,WSW,247,2.9,6.5,32,0.00,,,0.00,WUHU216WMR100,2013-07-03 19:50:00,
2013-07-03 15:55:00,93.4,55.3,29.12,SSW,202,4.0,6.5,28,0.00,,,0.00,WUHU216WMR100,2013-07-03 19:55:00,
2013-07-03 16:00:00,94.3,57.1,29.12,South,181,1.9,5.6,29,0.00,,,0.00,WUHU216WMR100,2013-07-03 20:00:00,
2013-07-03 16:05:00,92.8,55.8,29.12,SSE,157,2.0,5.6,29,0.00,,,0.00,WUHU216WMR100,2013-07-03 20:05:00,
2013-07-03 16:10:00,92.5,55.5,29.12,WSW,247,2.9,5.6,29,0.00,,,0.00,WUHU216WMR100,2013-07-03 20:10:00,
2013-07-03 16:15:00,93.0,56.9,29.12,SW,227,2.6,4.5,30,0.00,,,0.00,WUHU216WMR100,2013-07-03 20:15:00,
2013-07-03 16:21:00,91.6,54.8,29.12,SW,236,2.9,5.6,29,0.00,,,0.00,WUHU216WMR100,2013-07-03 20:21:00,
2013-07-03 16:26:00,91.4,55.5,29.12,WSW,251,3.1,5.8,30,0.00,,,0.00,WUHU216WMR100,2013-07-03 20:26:00,
2013-07-03 16:32:00,90.9,56.0,29.12,SSW,202,2.9,5.8,31,0.00,,,0.00,WUHU216WMR100,2013-07-03 20:32:00,
2013-07-03 16:37:00,89.4,55.6,29.12,WNW,282,1.1,4.3,32,0.00,,,0.00,WUHU216WMR100,2013-07-03 20:37:00,
2013-07-03 16:42:00,88.3,56.3,29.12,WSW,238,3.4,6.5,34,0.00,,,0.00,WUHU216WMR100,2013-07-03 20:42:00,
2013-07-03 16:47:00,87.4,56.3,29.12,SSW,202,1.6,6.5,35,0.00,,,0.00,WUHU216WMR100,2013-07-03 20:47:00,
2013-07-03 16:52:00,86.7,58.0,29.12,East,90,1.6,4.0,38,0.00,,,0.00,WUHU216WMR100,2013-07-03 20:52:00,
2013-07-03 16:57:00,86.2,58.3,29.12,East,90,0.5,4.0,39,0.00,,,0.00,WUHU216WMR100,2013-07-03 20:57:00,
2013-07-03 17:02:00,85.8,58.6,29.12,East,90,2.0,3.4,40,0.00,,,0.00,WUHU216WMR100,2013-07-03 21:02:00,
2013-07-03 17:07:00,84.9,57.8,29.12,ENE,67,0.9,3.4,40,0.00,,,0.00,WUHU216WMR100,2013-07-03 21:07:00,
2013-07-03 17:12:00,84.0,58.4,29.12,WSW,241,2.0,3.4,42,0.00,,,0.00,WUHU216WMR100,2013-07-03 21:12:00,
2013-07-03 17:17:00,83.5,58.0,29.12,SW,223,2.7,4.3,42,0.00,,,0.00,WUHU216WMR100,2013-07-03 21:17:00,
2013-07-03 17:22:00,82.9,58.1,29.12,SSW,207,2.0,5.4,43,0.00,,,0.00,WUHU216WMR100,2013-07-03 21:22:00,
2013-07-03 17:28:00,82.0,59.9,29.12,NW,315,2.5,5.4,47,0.00,,,0.00,WUHU216WMR100,2013-07-03 21:28:00,
2013-07-03 17:33:00,80.4,64.5,29.12,West,263,2.9,5.6,58,0.00,,,0.00,WUHU216WMR100,2013-07-03 21:33:00,
2013-07-03 17:40:00,78.8,63.5,29.12,West,277,3.1,5.6,59,0.00,,,0.00,WUHU216WMR100,2013-07-03 21:40:00,
2013-07-03 17:45:00,75.7,62.9,29.12,NNW,337,2.0,6.0,64,0.00,,,0.00,WUHU216WMR100,2013-07-03 21:45:00,
2013-07-03 17:50:00,75.0,65.2,29.15,SSW,207,1.8,6.0,71,0.04,,,0.04,WUHU216WMR100,2013-07-03 21:50:00,
2013-07-03 17:53:00,74.3,65.3,29.15,SW,228,2.7,8.7,73,0.04,,,0.04,WUHU216WMR100,2013-07-03 21:53:00,
2013-07-03 18:04:00,73.0,65.8,29.15,ESE,112,0.0,8.1,78,0.08,,,0.08,WUHU216WMR100,2013-07-03 22:04:00,
2013-07-03 18:10:00,72.9,65.4,29.15,West,270,0.1,5.4,77,0.08,,,0.08,WUHU216WMR100,2013-07-03 22:10:00,
2013-07-03 18:15:00,72.7,65.6,29.15,WSW,241,0.9,3.1,78,0.08,,,0.08,WUHU216WMR100,2013-07-03 22:15:00,
2013-07-03 18:20:00,72.5,65.0,29.15,WSW,247,1.1,5.4,77,0.08,,,0.08,WUHU216WMR100,2013-07-03 22:20:00,
2013-07-03 18:25:00,72.1,64.3,29.15,WNW,292,1.2,5.4,76,0.08,,,0.08,WUHU216WMR100,2013-07-03 22:25:00,
2013-07-03 18:31:00,71.6,63.8,29.15,SE,124,1.1,3.8,76,0.08,,,0.08,WUHU216WMR100,2013-07-03 22:31:00,
2013-07-03 18:36:00,71.1,63.3,29.15,WNW,292,0.0,2.9,76,0.04,,,0.12,WUHU216WMR100,2013-07-03 22:36:00,
2013-07-03 18:41:00,70.7,62.9,29.15,WNW,292,0.0,2.0,76,0.04,,,0.12,WUHU216WMR100,2013-07-03 22:41:00,
2013-07-03 18:46:00,70.7,63.6,29.15,East,90,2.0,2.7,78,0.04,,,0.12,WUHU216WMR100,2013-07-03 22:46:00,
2013-07-03 18:51:00,70.9,64.5,29.15,East,90,0.0,2.7,80,0.04,,,0.12,WUHU216WMR100,2013-07-03 22:51:00,
2013-07-03 18:56:00,71.1,65.4,29.15,East,90,0.0,1.3,82,0.04,,,0.12,WUHU216WMR100,2013-07-03 22:56:00,
2013-07-03 19:01:00,70.9,64.5,29.15,East,90,0.0,0.0,80,0.04,,,0.12,WUHU216WMR100,2013-07-03 23:01:00,
2013-07-03 19:07:00,71.1,65.0,29.15,East,90,0.0,0.0,81,0.04,,,0.12,WUHU216WMR100,2013-07-03 23:07:00,
2013-07-03 19:12:00,71.1,65.0,29.15,East,90,0.0,0.0,81,0.04,,,0.12,WUHU216WMR100,2013-07-03 23:12:00,
2013-07-03 19:17:00,71.2,65.8,29.12,East,90,0.0,0.0,83,0.04,,,0.12,WUHU216WMR100,2013-07-03 23:17:00,
2013-07-03 19:22:00,71.2,65.5,29.12,East,90,0.0,0.0,82,0.04,,,0.12,WUHU216WMR100,2013-07-03 23:22:00,
2013-07-03 19:27:00,71.4,66.0,29.12,WSW,247,0.0,0.0,83,0.04,,,0.12,WUHU216WMR100,2013-07-03 23:27:00,
2013-07-03 19:32:00,71.4,66.0,29.15,SE,135,0.0,0.0,83,0.00,,,0.12,WUHU216WMR100,2013-07-03 23:32:00,
2013-07-03 19:37:00,71.4,66.7,29.15,ESE,112,0.0,0.0,85,0.04,,,0.17,WUHU216WMR100,2013-07-03 23:37:00,
2013-07-03 19:42:00,71.4,67.3,29.15,East,90,1.4,2.7,87,0.04,,,0.17,WUHU216WMR100,2013-07-03 23:42:00,
2013-07-03 19:48:00,71.4,67.3,29.15,ESE,112,0.0,3.1,87,0.04,,,0.17,WUHU216WMR100,2013-07-03 23:48:00,
2013-07-03 19:53:00,71.6,67.2,29.15,ESE,112,0.0,3.1,86,0.04,,,0.17,WUHU216WMR100,2013-07-03 23:53:00,
2013-07-03 19:59:00,71.6,67.9,29.15,SE,135,0.3,2.9,88,0.04,,,0.17,WUHU216WMR100,2013-07-03 23:59:00,
2013-07-03 20:04:00,71.6,67.9,29.15,ENE,67,0.0,2.9,88,0.04,,,0.17,WUHU216WMR100,2013-07-04 00:04:00,
2013-07-03 20:09:00,71.6,67.9,29.15,ENE,67,0.2,2.0,88,0.04,,,0.17,WUHU216WMR100,2013-07-04 00:09:00,
2013-07-03 20:14:00,71.2,67.1,29.15,ESE,112,0.0,2.0,87,0.04,,,0.17,WUHU216WMR100,2013-07-04 00:14:00,
2013-07-03 20:19:00,71.1,67.0,29.15,ESE,112,0.0,0.9,87,0.04,,,0.17,WUHU216WMR100,2013-07-04 00:19:00,
2013-07-03 20:24:00,70.9,66.8,29.15,ESE,112,0.0,0.0,87,0.04,,,0.17,WUHU216WMR100,2013-07-04 00:24:00,
2013-07-03 20:30:00,70.7,66.6,29.15,ESE,112,0.0,1.1,87,0.04,,,0.17,WUHU216WMR100,2013-07-04 00:30:00,
2013-07-03 20:35:00,70.7,66.6,29.18,ESE,112,0.0,1.1,87,0.00,,,0.17,WUHU216WMR100,2013-07-04 00:35:00,
2013-07-03 20:40:00,70.5,66.5,29.18,ESE,112,1.1,2.7,87,0.00,,,0.17,WUHU216WMR100,2013-07-04 00:40:00,
2013-07-03 20:45:00,70.5,66.5,29.18,ENE,67,0.4,2.7,87,0.00,,,0.17,WUHU216WMR100,2013-07-04 00:45:00,
2013-07-03 20:50:00,70.3,66.3,29.18,ESE,112,0.0,2.5,87,0.00,,,0.17,WUHU216WMR100,2013-07-04 00:50:00,
2013-07-03 20:55:00,70.3,66.6,29.18,ESE,112,1.2,2.5,88,0.00,,,0.17,WUHU216WMR100,2013-07-04 00:55:00,
2013-07-03 21:01:00,70.3,66.6,29.18,ESE,112,0.0,2.0,88,0.00,,,0.17,WUHU216WMR100,2013-07-04 01:01:00,
2013-07-03 21:06:00,70.3,66.6,29.15,ESE,112,0.0,0.0,88,0.00,,,0.17,WUHU216WMR100,2013-07-04 01:06:00,
2013-07-03 21:11:00,70.2,66.5,29.15,ESE,112,0.0,0.0,88,0.00,,,0.17,WUHU216WMR100,2013-07-04 01:11:00,
2013-07-03 21:16:00,70.2,66.8,29.15,ESE,112,0.0,0.0,89,0.00,,,0.17,WUHU216WMR100,2013-07-04 01:16:00,
2013-07-03 21:22:00,70.2,66.8,29.15,ESE,112,0.0,0.0,89,0.00,,,0.17,WUHU216WMR100,2013-07-04 01:22:00,
2013-07-03 21:27:00,70.2,66.8,29.15,ESE,112,0.0,1.6,89,0.00,,,0.17,WUHU216WMR100,2013-07-04 01:27:00,
2013-07-03 21:32:00,70.2,66.8,29.15,ESE,112,0.0,2.9,89,0.00,,,0.17,WUHU216WMR100,2013-07-04 01:32:00,
2013-07-03 21:37:00,70.2,66.8,29.15,ESE,112,0.0,2.9,89,0.00,,,0.17,WUHU216WMR100,2013-07-04 01:37:00,
2013-07-03 21:42:00,70.0,66.6,29.15,ESE,112,0.0,0.0,89,0.00,,,0.17,WUHU216WMR100,2013-07-04 01:42:00,
2013-07-03 21:47:00,70.0,66.6,29.15,ESE,112,0.0,0.0,89,0.00,,,0.17,WUHU216WMR100,2013-07-04 01:47:00,
2013-07-03 21:52:00,70.0,66.6,29.15,ESE,112,0.0,2.0,89,0.00,,,0.17,WUHU216WMR100,2013-07-04 01:52:00,
2013-07-03 21:57:00,70.0,66.6,29.15,WNW,292,0.0,2.0,89,0.00,,,0.17,WUHU216WMR100,2013-07-04 01:57:00,
2013-07-03 22:02:00,70.0,66.6,29.15,WNW,292,0.0,1.6,89,0.00,,,0.17,WUHU216WMR100,2013-07-04 02:02:00,
2013-07-03 22:07:00,70.0,66.9,29.15,WNW,292,1.6,2.9,90,0.00,,,0.17,WUHU216WMR100,2013-07-04 02:07:00,
2013-07-03 22:12:00,70.0,66.9,29.15,WNW,292,0.0,2.9,90,0.00,,,0.17,WUHU216WMR100,2013-07-04 02:12:00,
2013-07-03 22:17:00,70.0,66.9,29.18,WNW,292,0.0,0.0,90,0.00,,,0.17,WUHU216WMR100,2013-07-04 02:17:00,
2013-07-03 22:23:00,69.8,66.7,29.18,WNW,292,0.0,1.1,90,0.00,,,0.17,WUHU216WMR100,2013-07-04 02:23:00,
2013-07-03 22:28:00,69.8,67.0,29.18,WNW,292,0.0,1.1,91,0.00,,,0.17,WUHU216WMR100,2013-07-04 02:28:00,
2013-07-03 22:33:00,69.8,67.0,29.15,WNW,292,0.0,0.0,91,0.00,,,0.17,WUHU216WMR100,2013-07-04 02:33:00,
2013-07-03 22:38:00,69.8,67.0,29.15,WNW,292,0.0,0.0,91,0.00,,,0.17,WUHU216WMR100,2013-07-04 02:38:00,
2013-07-03 22:44:00,69.8,67.0,29.15,WNW,292,0.0,0.0,91,0.00,,,0.17,WUHU216WMR100,2013-07-04 02:44:00,
2013-07-03 22:49:00,69.8,67.0,29.15,WNW,292,0.0,0.0,91,0.00,,,0.17,WUHU216WMR100,2013-07-04 02:49:00,
2013-07-03 22:54:00,69.8,67.0,29.15,WNW,292,0.0,0.0,91,0.00,,,0.17,WUHU216WMR100,2013-07-04 02:54:00,
2013-07-03 22:59:00,69.8,67.0,29.15,WNW,292,0.0,1.1,91,0.00,,,0.17,WUHU216WMR100,2013-07-04 02:59:00,
2013-07-03 23:04:00,69.8,67.0,29.18,WNW,292,0.0,1.1,91,0.00,,,0.17,WUHU216WMR100,2013-07-04 03:04:00,
2013-07-03 23:09:00,69.8,67.0,29.18,WNW,292,0.0,0.0,91,0.00,,,0.17,WUHU216WMR100,2013-07-04 03:09:00,
2013-07-03 23:15:00,69.8,67.0,29.18,East,90,0.0,1.6,91,0.00,,,0.17,WUHU216WMR100,2013-07-04 03:15:00,
2013-07-03 23:20:00,69.8,67.0,29.18,East,90,0.0,1.6,91,0.00,,,0.17,WUHU216WMR100,2013-07-04 03:20:00,
2013-07-03 23:25:00,69.8,67.3,29.18,East,90,0.0,2.0,92,0.00,,,0.17,WUHU216WMR100,2013-07-04 03:25:00,
2013-07-03 23:30:00,69.6,67.1,29.18,West,270,0.0,2.0,92,0.00,,,0.17,WUHU216WMR100,2013-07-04 03:30:00,
2013-07-03 23:35:00,69.6,67.1,29.18,West,270,0.0,0.0,92,0.00,,,0.17,WUHU216WMR100,2013-07-04 03:35:00,
2013-07-03 23:40:00,69.6,67.1,29.18,NNE,22,0.3,1.3,92,0.00,,,0.17,WUHU216WMR100,2013-07-04 03:40:00,
2013-07-03 23:45:00,69.6,67.1,29.18,NNE,22,0.0,1.3,92,0.00,,,0.17,WUHU216WMR100,2013-07-04 03:45:00,
2013-07-03 23:50:00,69.6,67.1,29.15,NNE,22,0.0,0.0,92,0.00,,,0.17,WUHU216WMR100,2013-07-04 03:50:00,
2013-07-03 23:55:00,69.6,67.5,29.15,NNE,22,0.0,0.0,93,0.00,,,0.17,WUHU216WMR100,2013-07-04 03:55:00,